sensor_id;sensor_type;location;lat;lon;timestamp;pressure;altitude;pressure_sealevel;temperature;humidity
40954;BME280;26686;50.130;8.710;2023-01-15T00:02:48;98569.66;;;9.69;100.00
40954;BME280;26686;50.130;8.710;2023-01-15T00:07:49;98582.94;;;9.69;100.00
40954;BME280;26686;50.130;8.710;2023-01-15T00:12:52;98568.66;;;9.70;100.00
40954;BME280;26686;50.130;8.710;2023-01-15T00:17:53;98575.31;;;9.74;100.00
40954;BME280;26686;50.130;8.710;2023-01-15T00:22:55;98553.72;;;9.77;100.00
40954;BME280;26686;50.130;8.710;2023-01-15T00:27:57;98552.75;;;9.78;100.00
40954;BME280;26686;50.130;8.710;2023-01-15T00:33:01;98546.75;;;9.76;100.00
40954;BME280;26686;50.130;8.710;2023-01-15T00:38:03;98544.09;;;9.76;100.00
40954;BME280;26686;50.130;8.710;2023-01-15T00:43:05;98543.63;;;9.81;100.00
40954;BME280;26686;50.130;8.710;2023-01-15T00:48:06;98543.47;;;9.82;100.00
40954;BME280;26686;50.130;8.710;2023-01-15T00:53:09;98540.13;;;9.80;100.00
40954;BME280;26686;50.130;8.710;2023-01-15T00:58:10;98551.59;;;9.81;100.00
40954;BME280;26686;50.130;8.710;2023-01-15T01:03:11;98544.09;;;9.76;100.00
40954;BME280;26686;50.130;8.710;2023-01-15T01:08:13;98558.72;;;9.80;100.00
40954;BME280;26686;50.130;8.710;2023-01-15T01:13:14;98553.72;;;9.77;100.00
40954;BME280;26686;50.130;8.710;2023-01-15T01:18:16;98550.72;;;9.72;100.00
40954;BME280;26686;50.130;8.710;2023-01-15T01:23:18;98552.41;;;9.73;100.00
40954;BME280;26686;50.130;8.710;2023-01-15T01:28:19;98579.16;;;9.80;100.00
40954;BME280;26686;50.130;8.710;2023-01-15T01:33:21;98577.69;;;9.85;100.00
40954;BME280;26686;50.130;8.710;2023-01-15T01:38:22;98566.41;;;9.91;100.00
40954;BME280;26686;50.130;8.710;2023-01-15T01:43:26;98576.38;;;9.89;100.00
40954;BME280;26686;50.130;8.710;2023-01-15T01:48:31;98584.53;;;9.96;100.00
40954;BME280;26686;50.130;8.710;2023-01-15T01:53:35;98592.34;;;9.98;100.00
40954;BME280;26686;50.130;8.710;2023-01-15T01:58:37;98602.16;;;9.97;100.00
40954;BME280;26686;50.130;8.710;2023-01-15T02:03:39;98605.84;;;10.04;100.00
40954;BME280;26686;50.130;8.710;2023-01-15T02:08:41;98621.97;;;10.03;100.00
40954;BME280;26686;50.130;8.710;2023-01-15T02:18:58;98620.78;;;10.05;100.00
40954;BME280;26686;50.130;8.710;2023-01-15T02:24:05;98619.81;;;10.06;100.00
40954;BME280;26686;50.130;8.710;2023-01-15T02:29:12;98627.44;;;10.09;100.00
40954;BME280;26686;50.130;8.710;2023-01-15T02:34:22;98637.94;;;10.11;100.00
40954;BME280;26686;50.130;8.710;2023-01-15T02:39:27;98654.88;;;10.10;100.00
40954;BME280;26686;50.130;8.710;2023-01-15T02:44:35;98652.41;;;9.82;100.00
40954;BME280;26686;50.130;8.710;2023-01-15T02:49:40;98659.28;;;9.41;99.16
40954;BME280;26686;50.130;8.710;2023-01-15T02:54:47;98658.91;;;9.53;100.00
40954;BME280;26686;50.130;8.710;2023-01-15T02:59:54;98657.16;;;9.44;96.92
40954;BME280;26686;50.130;8.710;2023-01-15T03:10:18;98686.50;;;9.16;96.72
40954;BME280;26686;50.130;8.710;2023-01-15T03:15:24;98681.56;;;9.03;95.71
40954;BME280;26686;50.130;8.710;2023-01-15T03:20:50;98687.16;;;9.18;96.12
40954;BME280;26686;50.130;8.710;2023-01-15T03:25:52;98681.09;;;9.08;97.41
40954;BME280;26686;50.130;8.710;2023-01-15T03:30:54;98687.84;;;9.20;97.93
40954;BME280;26686;50.130;8.710;2023-01-15T03:36:01;98680.56;;;9.23;97.40
40954;BME280;26686;50.130;8.710;2023-01-15T03:41:18;98698.06;;;9.33;97.33
40954;BME280;26686;50.130;8.710;2023-01-15T03:46:26;98725.31;;;9.35;97.14
40954;BME280;26686;50.130;8.710;2023-01-15T03:51:43;98731.63;;;9.16;94.45
40954;BME280;26686;50.130;8.710;2023-01-15T03:56:53;98720.03;;;9.17;93.70
40954;BME280;26686;50.130;8.710;2023-01-15T04:02:00;98740.41;;;8.99;92.20
40954;BME280;26686;50.130;8.710;2023-01-15T04:07:04;98735.53;;;8.94;91.00
40954;BME280;26686;50.130;8.710;2023-01-15T04:12:05;98747.59;;;8.89;89.99
40954;BME280;26686;50.130;8.710;2023-01-15T04:17:07;98751.63;;;8.93;91.02
40954;BME280;26686;50.130;8.710;2023-01-15T04:22:10;98744.84;;;8.80;87.92
40954;BME280;26686;50.130;8.710;2023-01-15T04:27:12;98760.41;;;8.75;86.19
40954;BME280;26686;50.130;8.710;2023-01-15T04:32:13;98774.88;;;8.43;87.52
40954;BME280;26686;50.130;8.710;2023-01-15T04:37:16;98790.03;;;8.13;89.66
40954;BME280;26686;50.130;8.710;2023-01-15T04:42:17;98797.06;;;7.95;90.69
40954;BME280;26686;50.130;8.710;2023-01-15T04:47:37;98806.72;;;7.76;88.19
40954;BME280;26686;50.130;8.710;2023-01-15T04:52:39;98791.84;;;7.46;88.96
40954;BME280;26686;50.130;8.710;2023-01-15T04:57:40;98799.19;;;7.42;89.37
40954;BME280;26686;50.130;8.710;2023-01-15T05:02:42;98820.09;;;7.65;93.13
40954;BME280;26686;50.130;8.710;2023-01-15T05:07:43;98805.88;;;7.76;86.97
40954;BME280;26686;50.130;8.710;2023-01-15T05:12:44;98796.72;;;7.51;88.22
40954;BME280;26686;50.130;8.710;2023-01-15T05:17:46;98786.09;;;7.60;85.85
40954;BME280;26686;50.130;8.710;2023-01-15T05:22:47;98807.28;;;7.70;84.88
40954;BME280;26686;50.130;8.710;2023-01-15T05:27:49;98799.75;;;7.75;87.03
40954;BME280;26686;50.130;8.710;2023-01-15T05:32:50;98825.97;;;7.78;85.89
40954;BME280;26686;50.130;8.710;2023-01-15T05:37:52;98826.66;;;7.71;86.96
40954;BME280;26686;50.130;8.710;2023-01-15T05:42:53;98847.84;;;7.81;86.99
40954;BME280;26686;50.130;8.710;2023-01-15T05:47:55;98845.75;;;7.74;86.99
40954;BME280;26686;50.130;8.710;2023-01-15T05:52:56;98844.09;;;7.73;84.55
40954;BME280;26686;50.130;8.710;2023-01-15T05:57:58;98856.75;;;7.40;87.53
40954;BME280;26686;50.130;8.710;2023-01-15T06:02:59;98852.16;;;7.42;86.51
40954;BME280;26686;50.130;8.710;2023-01-15T06:08:01;98864.34;;;7.14;86.75
40954;BME280;26686;50.130;8.710;2023-01-15T06:13:02;98858.34;;;7.02;86.17
40954;BME280;26686;50.130;8.710;2023-01-15T06:18:04;98854.19;;;7.10;87.93
40954;BME280;26686;50.130;8.710;2023-01-15T06:23:06;98852.63;;;6.97;88.94
40954;BME280;26686;50.130;8.710;2023-01-15T06:28:08;98844.50;;;6.89;86.06
40954;BME280;26686;50.130;8.710;2023-01-15T06:33:10;98852.91;;;6.94;85.38
40954;BME280;26686;50.130;8.710;2023-01-15T06:38:11;98850.03;;;7.17;87.22
40954;BME280;26686;50.130;8.710;2023-01-15T06:43:13;98877.94;;;6.90;86.05
40954;BME280;26686;50.130;8.710;2023-01-15T06:48:33;98885.91;;;7.00;84.79
40954;BME280;26686;50.130;8.710;2023-01-15T06:53:35;98893.00;;;6.99;87.61
40954;BME280;26686;50.130;8.710;2023-01-15T06:58:36;98903.19;;;7.04;84.44
40954;BME280;26686;50.130;8.710;2023-01-15T07:03:38;98894.41;;;7.03;86.01
40954;BME280;26686;50.130;8.710;2023-01-15T07:08:40;98911.38;;;6.91;84.07
40954;BME280;26686;50.130;8.710;2023-01-15T07:13:41;98893.13;;;6.88;85.89
40954;BME280;26686;50.130;8.710;2023-01-15T07:18:43;98891.00;;;6.82;87.97
40954;BME280;26686;50.130;8.710;2023-01-15T07:23:44;98907.66;;;7.03;87.29
40954;BME280;26686;50.130;8.710;2023-01-15T07:28:46;98923.44;;;7.15;88.28
40954;BME280;26686;50.130;8.710;2023-01-15T07:33:47;98929.69;;;7.14;88.87
40954;BME280;26686;50.130;8.710;2023-01-15T07:38:49;98932.94;;;6.96;87.97
40954;BME280;26686;50.130;8.710;2023-01-15T07:43:50;98947.34;;;7.03;87.08
40954;BME280;26686;50.130;8.710;2023-01-15T07:49:11;98953.09;;;6.87;88.06
40954;BME280;26686;50.130;8.710;2023-01-15T07:54:32;98945.81;;;6.80;88.84
40954;BME280;26686;50.130;8.710;2023-01-15T07:59:33;98965.31;;;6.79;89.08
40954;BME280;26686;50.130;8.710;2023-01-15T08:04:35;98966.72;;;6.83;89.74
40954;BME280;26686;50.130;8.710;2023-01-15T08:09:36;98981.72;;;6.72;89.88
40954;BME280;26686;50.130;8.710;2023-01-15T08:14:38;98977.97;;;6.54;90.43
40954;BME280;26686;50.130;8.710;2023-01-15T08:20:01;98975.28;;;6.65;91.95
40954;BME280;26686;50.130;8.710;2023-01-15T08:25:04;98980.94;;;6.40;90.15
40954;BME280;26686;50.130;8.710;2023-01-15T08:30:07;98976.78;;;6.47;91.76
40954;BME280;26686;50.130;8.710;2023-01-15T08:35:10;98988.66;;;6.31;91.64
40954;BME280;26686;50.130;8.710;2023-01-15T08:40:13;98986.97;;;6.30;91.64
40954;BME280;26686;50.130;8.710;2023-01-15T08:45:14;98998.00;;;6.14;92.35
40954;BME280;26686;50.130;8.710;2023-01-15T08:50:16;99013.91;;;6.24;90.75
40954;BME280;26686;50.130;8.710;2023-01-15T08:55:17;99019.44;;;6.21;90.70
40954;BME280;26686;50.130;8.710;2023-01-15T09:00:19;99018.75;;;6.19;91.70
40954;BME280;26686;50.130;8.710;2023-01-15T09:05:21;99018.53;;;6.11;89.99
40954;BME280;26686;50.130;8.710;2023-01-15T09:10:23;99024.97;;;6.18;91.70
40954;BME280;26686;50.130;8.710;2023-01-15T09:15:25;99038.50;;;6.36;91.38
40954;BME280;26686;50.130;8.710;2023-01-15T09:20:26;99041.78;;;6.28;91.00
40954;BME280;26686;50.130;8.710;2023-01-15T09:25:28;99045.13;;;6.30;90.88
40954;BME280;26686;50.130;8.710;2023-01-15T09:30:29;99063.97;;;6.37;91.36
40954;BME280;26686;50.130;8.710;2023-01-15T09:35:31;99069.53;;;6.23;91.86
40954;BME280;26686;50.130;8.710;2023-01-15T09:51:27;99085.63;;;6.31;91.51
40954;BME280;26686;50.130;8.710;2023-01-15T09:56:35;99097.97;;;6.30;91.56
40954;BME280;26686;50.130;8.710;2023-01-15T10:01:37;99086.38;;;6.22;91.20
40954;BME280;26686;50.130;8.710;2023-01-15T10:06:46;99080.03;;;6.13;91.71
40954;BME280;26686;50.130;8.710;2023-01-15T10:12:17;99088.41;;;6.18;90.15
40954;BME280;26686;50.130;8.710;2023-01-15T10:17:42;99086.94;;;6.25;87.97
40954;BME280;26686;50.130;8.710;2023-01-15T10:23:19;99088.16;;;6.21;89.51
40954;BME280;26686;50.130;8.710;2023-01-15T10:28:29;99087.91;;;6.24;86.88
40954;BME280;26686;50.130;8.710;2023-01-15T10:33:56;99093.94;;;6.15;86.45
40954;BME280;26686;50.130;8.710;2023-01-15T10:39:32;99082.88;;;6.21;84.95
40954;BME280;26686;50.130;8.710;2023-01-15T10:44:57;99097.50;;;6.36;86.02
40954;BME280;26686;50.130;8.710;2023-01-15T10:50:14;99092.94;;;6.27;83.00
40954;BME280;26686;50.130;8.710;2023-01-15T10:55:21;99097.97;;;6.30;83.08
40954;BME280;26686;50.130;8.710;2023-01-15T11:00:24;99087.66;;;6.27;82.74
40954;BME280;26686;50.130;8.710;2023-01-15T11:05:27;99087.41;;;6.30;81.28
40954;BME280;26686;50.130;8.710;2023-01-15T11:10:28;99102.53;;;6.40;81.97
40954;BME280;26686;50.130;8.710;2023-01-15T11:15:30;99120.91;;;6.41;81.40
40954;BME280;26686;50.130;8.710;2023-01-15T11:20:50;99100.34;;;6.45;80.90
40954;BME280;26686;50.130;8.710;2023-01-15T11:25:54;99102.41;;;6.41;81.08
40954;BME280;26686;50.130;8.710;2023-01-15T11:30:57;99118.50;;;6.70;80.34
40954;BME280;26686;50.130;8.710;2023-01-15T11:36:03;99121.16;;;6.70;77.89
40954;BME280;26686;50.130;8.710;2023-01-15T11:41:05;99130.03;;;6.69;77.58
40954;BME280;26686;50.130;8.710;2023-01-15T11:51:46;99136.25;;;7.95;70.80
40954;BME280;26686;50.130;8.710;2023-01-15T11:56:49;99143.53;;;8.03;70.37
40954;BME280;26686;50.130;8.710;2023-01-15T12:02:00;99142.97;;;9.08;65.19
40954;BME280;26686;50.130;8.710;2023-01-15T12:07:05;99133.75;;;8.54;66.35
40954;BME280;26686;50.130;8.710;2023-01-15T12:28:47;99095.78;;;18.81;36.31
40954;BME280;26686;50.130;8.710;2023-01-15T12:34:00;99093.09;;;15.38;43.22
40954;BME280;26686;50.130;8.710;2023-01-15T12:39:11;99076.84;;;14.78;43.75
40954;BME280;26686;50.130;8.710;2023-01-15T12:44:18;99084.69;;;12.55;48.75
40954;BME280;26686;50.130;8.710;2023-01-15T12:49:46;99090.47;;;10.15;56.70
40954;BME280;26686;50.130;8.710;2023-01-15T12:54:57;99099.09;;;9.14;61.42
40954;BME280;26686;50.130;8.710;2023-01-15T13:00:11;99092.66;;;9.26;59.70
40954;BME280;26686;50.130;8.710;2023-01-15T13:10:28;99102.78;;;8.83;61.77
40954;BME280;26686;50.130;8.710;2023-01-15T13:15:38;99099.53;;;8.41;62.96
40954;BME280;26686;50.130;8.710;2023-01-15T13:20:46;99106.88;;;8.18;64.15
40954;BME280;26686;50.130;8.710;2023-01-15T13:31:40;99109.00;;;7.73;64.06
40954;BME280;26686;50.130;8.710;2023-01-15T13:36:47;99111.19;;;7.68;64.17
40954;BME280;26686;50.130;8.710;2023-01-15T13:41:52;99125.84;;;7.72;62.65
40954;BME280;26686;50.130;8.710;2023-01-15T13:47:17;99116.53;;;7.78;61.76
40954;BME280;26686;50.130;8.710;2023-01-15T13:52:35;99129.16;;;7.65;63.29
40954;BME280;26686;50.130;8.710;2023-01-15T13:57:39;99127.97;;;7.78;64.82
40954;BME280;26686;50.130;8.710;2023-01-15T14:02:51;99131.41;;;7.69;64.59
40954;BME280;26686;50.130;8.710;2023-01-15T14:07:53;99139.44;;;7.89;62.70
40954;BME280;26686;50.130;8.710;2023-01-15T14:13:04;99134.56;;;7.94;62.01
40954;BME280;26686;50.130;8.710;2023-01-15T14:23:41;99149.16;;;7.78;64.43
40954;BME280;26686;50.130;8.710;2023-01-15T14:29:24;99149.16;;;7.78;66.19
40954;BME280;26686;50.130;8.710;2023-01-15T14:34:32;99162.50;;;7.67;67.13
40954;BME280;26686;50.130;8.710;2023-01-15T14:39:41;99170.78;;;7.53;66.30
40954;BME280;26686;50.130;8.710;2023-01-15T14:50:36;99184.72;;;7.55;65.59
40954;BME280;26686;50.130;8.710;2023-01-15T14:55:48;99191.69;;;7.56;65.20
40954;BME280;26686;50.130;8.710;2023-01-15T15:00:51;99189.88;;;7.56;64.73
40954;BME280;26686;50.130;8.710;2023-01-15T15:05:56;99188.13;;;7.67;65.36
40954;BME280;26686;50.130;8.710;2023-01-15T15:10:58;99209.00;;;7.60;63.64
40954;BME280;26686;50.130;8.710;2023-01-15T15:21:19;99213.31;;;7.40;63.43
40954;BME280;26686;50.130;8.710;2023-01-15T15:26:33;99220.69;;;7.36;63.67
40954;BME280;26686;50.130;8.710;2023-01-15T15:31:42;99226.25;;;7.33;63.17
40954;BME280;26686;50.130;8.710;2023-01-15T15:36:45;99228.44;;;7.28;63.63
40954;BME280;26686;50.130;8.710;2023-01-15T15:41:48;99224.81;;;7.29;63.37
40954;BME280;26686;50.130;8.710;2023-01-15T15:47:22;99215.78;;;7.32;63.99
40954;BME280;26686;50.130;8.710;2023-01-15T15:52:43;99227.81;;;7.36;63.41
40954;BME280;26686;50.130;8.710;2023-01-15T15:57:48;99218.56;;;7.30;63.93
40954;BME280;26686;50.130;8.710;2023-01-15T16:02:51;99231.31;;;7.25;64.17
40954;BME280;26686;50.130;8.710;2023-01-15T16:07:53;99234.28;;;7.11;63.44
40954;BME280;26686;50.130;8.710;2023-01-15T16:12:58;99223.47;;;7.02;64.12
40954;BME280;26686;50.130;8.710;2023-01-15T16:18:00;99233.69;;;7.07;64.74
40954;BME280;26686;50.130;8.710;2023-01-15T16:23:03;99207.03;;;6.99;64.39
40954;BME280;26686;50.130;8.710;2023-01-15T16:28:06;99227.38;;;6.98;65.40
40954;BME280;26686;50.130;8.710;2023-01-15T16:33:22;99227.81;;;7.03;66.50
40954;BME280;26686;50.130;8.710;2023-01-15T16:38:24;99229.75;;;7.01;67.32
40954;BME280;26686;50.130;8.710;2023-01-15T16:43:27;99217.16;;;6.94;67.76
40954;BME280;26686;50.130;8.710;2023-01-15T16:48:33;99225.94;;;6.83;68.07
40954;BME280;26686;50.130;8.710;2023-01-15T16:53:39;99221.75;;;6.80;68.41
40954;BME280;26686;50.130;8.710;2023-01-15T16:58:41;99216.84;;;6.76;69.22
40954;BME280;26686;50.130;8.710;2023-01-15T17:03:42;99219.63;;;6.63;69.20
40954;BME280;26686;50.130;8.710;2023-01-15T17:08:47;99223.22;;;6.62;69.04
40954;BME280;26686;50.130;8.710;2023-01-15T17:13:49;99237.91;;;6.66;69.26
40954;BME280;26686;50.130;8.710;2023-01-15T17:18:51;99240.34;;;6.58;69.93
40954;BME280;26686;50.130;8.710;2023-01-15T17:23:53;99232.84;;;6.51;70.88
40954;BME280;26686;50.130;8.710;2023-01-15T17:28:55;99237.22;;;6.41;71.56
40954;BME280;26686;50.130;8.710;2023-01-15T17:33:58;99223.88;;;6.43;70.90
40954;BME280;26686;50.130;8.710;2023-01-15T17:39:00;99216.19;;;6.40;71.59
40954;BME280;26686;50.130;8.710;2023-01-15T17:44:01;99213.31;;;6.43;71.64
40954;BME280;26686;50.130;8.710;2023-01-15T17:49:04;99208.63;;;6.24;71.95
40954;BME280;26686;50.130;8.710;2023-01-15T17:54:05;99207.44;;;6.28;73.13
40954;BME280;26686;50.130;8.710;2023-01-15T17:59:07;99199.75;;;6.25;73.49
40954;BME280;26686;50.130;8.710;2023-01-15T18:04:38;99203.47;;;6.11;73.85
40954;BME280;26686;50.130;8.710;2023-01-15T18:10:00;99201.53;;;6.24;74.22
40954;BME280;26686;50.130;8.710;2023-01-15T18:15:02;99189.69;;;6.18;74.33
40954;BME280;26686;50.130;8.710;2023-01-15T18:20:04;99178.50;;;6.15;74.15
40954;BME280;26686;50.130;8.710;2023-01-15T18:25:06;99168.16;;;6.12;74.25
40954;BME280;26686;50.130;8.710;2023-01-15T18:30:12;99173.44;;;6.12;74.49
40954;BME280;26686;50.130;8.710;2023-01-15T18:35:14;99160.16;;;6.02;74.45
40954;BME280;26686;50.130;8.710;2023-01-15T18:40:17;99175.88;;;6.04;74.89
40954;BME280;26686;50.130;8.710;2023-01-15T18:45:19;99159.78;;;6.07;75.43
40954;BME280;26686;50.130;8.710;2023-01-15T18:50:39;99150.63;;;6.11;75.30
40954;BME280;26686;50.130;8.710;2023-01-15T18:55:41;99131.91;;;6.03;75.29
40954;BME280;26686;50.130;8.710;2023-01-15T19:00:44;99140.06;;;6.11;75.55
40954;BME280;26686;50.130;8.710;2023-01-15T19:05:45;99132.88;;;6.13;75.77
40954;BME280;26686;50.130;8.710;2023-01-15T19:10:47;99119.78;;;6.11;75.71
40954;BME280;26686;50.130;8.710;2023-01-15T19:15:48;99125.31;;;6.08;75.29
40954;BME280;26686;50.130;8.710;2023-01-15T19:21:08;99113.13;;;6.17;74.75
40954;BME280;26686;50.130;8.710;2023-01-15T19:26:12;99096.22;;;6.19;73.84
40954;BME280;26686;50.130;8.710;2023-01-15T19:31:14;99099.94;;;6.17;73.61
40954;BME280;26686;50.130;8.710;2023-01-15T19:36:37;99098.03;;;6.19;73.43
40954;BME280;26686;50.130;8.710;2023-01-15T19:41:38;99090.09;;;6.19;73.35
40954;BME280;26686;50.130;8.710;2023-01-15T19:46:58;99090.22;;;6.17;72.41
40954;BME280;26686;50.130;8.710;2023-01-15T19:52:19;99078.19;;;6.25;71.85
40954;BME280;26686;50.130;8.710;2023-01-15T19:57:37;99076.50;;;6.24;71.50
40954;BME280;26686;50.130;8.710;2023-01-15T20:02:38;99061.97;;;6.29;71.22
40954;BME280;26686;50.130;8.710;2023-01-15T20:07:41;99057.94;;;6.35;71.65
40954;BME280;26686;50.130;8.710;2023-01-15T20:12:42;99048.63;;;6.19;72.37
40954;BME280;26686;50.130;8.710;2023-01-15T20:18:03;99046.22;;;6.28;72.12
40954;BME280;26686;50.130;8.710;2023-01-15T20:23:05;99037.91;;;6.32;72.60
40954;BME280;26686;50.130;8.710;2023-01-15T20:28:07;99034.38;;;6.43;72.92
40954;BME280;26686;50.130;8.710;2023-01-15T20:33:08;99022.75;;;6.34;73.37
40954;BME280;26686;50.130;8.710;2023-01-15T20:38:10;99012.00;;;6.26;74.58
40954;BME280;26686;50.130;8.710;2023-01-15T20:43:11;99021.81;;;6.35;76.04
40954;BME280;26686;50.130;8.710;2023-01-15T20:48:31;99022.31;;;6.29;77.46
40954;BME280;26686;50.130;8.710;2023-01-15T20:53:52;99015.16;;;6.20;76.13
40954;BME280;26686;50.130;8.710;2023-01-15T20:58:53;99014.41;;;6.18;77.38
40954;BME280;26686;50.130;8.710;2023-01-15T21:03:57;99008.06;;;6.09;79.10
40954;BME280;26686;50.130;8.710;2023-01-15T21:08:58;99004.59;;;6.09;81.07
40954;BME280;26686;50.130;8.710;2023-01-15T21:14:00;98982.38;;;6.11;81.15
40954;BME280;26686;50.130;8.710;2023-01-15T21:19:02;98989.44;;;6.22;81.70
40954;BME280;26686;50.130;8.710;2023-01-15T21:24:05;98976.63;;;6.06;81.94
40954;BME280;26686;50.130;8.710;2023-01-15T21:29:06;98974.34;;;6.13;80.62
40954;BME280;26686;50.130;8.710;2023-01-15T21:34:09;98978.69;;;6.03;80.45
40954;BME280;26686;50.130;8.710;2023-01-15T21:39:12;98969.81;;;6.04;81.08
40954;BME280;26686;50.130;8.710;2023-01-15T21:44:16;98970.63;;;6.04;80.54
40954;BME280;26686;50.130;8.710;2023-01-15T21:49:36;98957.81;;;5.88;79.31
40954;BME280;26686;50.130;8.710;2023-01-15T21:54:39;98950.00;;;5.87;79.97
40954;BME280;26686;50.130;8.710;2023-01-15T21:59:41;98927.81;;;5.89;80.20
40954;BME280;26686;50.130;8.710;2023-01-15T22:04:42;98927.81;;;6.00;80.03
40954;BME280;26686;50.130;8.710;2023-01-15T22:09:44;98926.34;;;5.96;79.66
40954;BME280;26686;50.130;8.710;2023-01-15T22:14:45;98925.25;;;5.99;79.49
40954;BME280;26686;50.130;8.710;2023-01-15T22:19:47;98921.56;;;5.90;78.93
40954;BME280;26686;50.130;8.710;2023-01-15T22:24:51;98909.81;;;5.83;79.41
40954;BME280;26686;50.130;8.710;2023-01-15T22:29:53;98904.28;;;5.86;79.50
40954;BME280;26686;50.130;8.710;2023-01-15T22:34:54;98896.75;;;5.81;79.36
40954;BME280;26686;50.130;8.710;2023-01-15T22:39:55;98880.91;;;5.81;80.03
40954;BME280;26686;50.130;8.710;2023-01-15T22:44:57;98874.44;;;5.74;80.48
40954;BME280;26686;50.130;8.710;2023-01-15T22:50:00;98874.06;;;5.79;81.46
40954;BME280;26686;50.130;8.710;2023-01-15T22:55:02;98870.22;;;5.83;81.14
40954;BME280;26686;50.130;8.710;2023-01-15T23:00:04;98870.09;;;5.84;80.97
40954;BME280;26686;50.130;8.710;2023-01-15T23:05:07;98846.94;;;5.77;81.28
40954;BME280;26686;50.130;8.710;2023-01-15T23:10:10;98839.06;;;5.65;81.81
40954;BME280;26686;50.130;8.710;2023-01-15T23:15:12;98817.38;;;5.62;81.98
40954;BME280;26686;50.130;8.710;2023-01-15T23:20:14;98803.78;;;5.66;81.73
40954;BME280;26686;50.130;8.710;2023-01-15T23:25:15;98808.81;;;5.70;81.09
40954;BME280;26686;50.130;8.710;2023-01-15T23:30:17;98796.56;;;5.69;80.64
40954;BME280;26686;50.130;8.710;2023-01-15T23:35:19;98783.06;;;5.62;80.99
40954;BME280;26686;50.130;8.710;2023-01-15T23:40:20;98795.66;;;5.58;80.46
40954;BME280;26686;50.130;8.710;2023-01-15T23:45:22;98786.78;;;5.59;81.03
40954;BME280;26686;50.130;8.710;2023-01-15T23:50:42;98780.34;;;5.52;82.20
40954;BME280;26686;50.130;8.710;2023-01-15T23:55:44;98774.13;;;5.42;84.00
